Time;durP1;ratioP1;P1;durP2;ratioP2;P2;SDS_P1;SDS_P2;PMS_P1;PMS_P2;Temp;Humidity;BMP_temperature;BMP_pressure;BME280_temperature;BME280_humidity;BME280_pressure;Samples;Min_cycle;Max_cycle;Signal;HPM_P1;HPM_P2
2023/09/23 00:00:12;;;;;;;4.55;4.15;;;;;;;12.72;100.00;100520.97;4938814;28;20039;-74
2023/09/23 00:02:43;;;;;;;4.43;3.97;;;;;;;12.72;100.00;100517.44;4886276;29;20094;-74
2023/09/23 00:05:11;;;;;;;6.95;4.82;;;;;;;12.66;100.00;100521.91;4938117;28;20472;-74
2023/09/23 00:07:40;;;;;;;5.13;3.97;;;;;;;12.62;100.00;100521.94;4930662;29;20055;-74
2023/09/23 00:10:08;;;;;;;4.22;3.65;;;;;;;12.58;100.00;100522.88;4955329;28;20106;-74
2023/09/23 00:12:36;;;;;;;4.65;4.13;;;;;;;12.56;100.00;100527.31;4914848;29;20059;-74
2023/09/23 00:15:05;;;;;;;4.65;4.20;;;;;;;12.56;100.00;100524.66;4908914;29;20047;-74
2023/09/23 00:17:33;;;;;;;4.90;4.15;;;;;;;12.57;100.00;100531.69;4879296;29;20512;-74
2023/09/23 00:20:00;;;;;;;4.22;3.53;;;;;;;12.57;100.00;100526.41;4909524;29;20078;-73
2023/09/23 00:22:28;;;;;;;4.53;4.07;;;;;;;12.58;100.00;100536.09;4925814;29;20502;-73
2023/09/23 00:24:55;;;;;;;4.68;4.28;;;;;;;12.56;100.00;100544.03;4932818;29;20056;-73
2023/09/23 00:27:26;;;;;;;6.10;4.15;;;;;;;12.55;100.00;100538.75;4922905;28;20055;-73
2023/09/23 00:29:53;;;;;;;6.45;4.05;;;;;;;12.51;100.00;100532.63;4921296;29;20062;-74
2023/09/23 00:32:21;;;;;;;5.22;4.10;;;;;;;12.50;100.00;100536.19;4927053;28;20066;-74
2023/09/23 00:34:48;;;;;;;4.72;4.32;;;;;;;12.49;100.00;100542.34;4904475;28;20066;-74
2023/09/23 00:37:16;;;;;;;5.07;4.60;;;;;;;12.47;100.00;100539.69;4931892;29;20864;-73
2023/09/23 00:39:43;;;;;;;5.05;3.97;;;;;;;12.45;100.00;100546.78;4907454;29;20047;-73
2023/09/23 00:42:12;;;;;;;4.60;3.65;;;;;;;12.43;100.00;100548.56;4914344;29;20062;-73
2023/09/23 00:44:39;;;;;;;4.82;3.60;;;;;;;12.43;100.00;100543.28;4945720;28;20453;-73
2023/09/23 00:47:09;;;;;;;4.38;3.97;;;;;;;12.41;100.00;100547.69;4894591;29;20051;-73
2023/09/23 00:49:41;;;;;;;4.28;3.88;;;;;;;12.36;100.00;100554.81;4915192;28;20482;-73
2023/09/23 00:52:09;;;;;;;4.10;3.70;;;;;;;12.36;100.00;100553.91;4950417;28;20078;-73
2023/09/23 00:54:41;;;;;;;5.03;4.22;;;;;;;12.31;100.00;100564.53;4903415;29;20055;-73
2023/09/23 00:57:10;;;;;;;4.38;3.97;;;;;;;12.27;100.00;100563.69;4932236;29;20047;-73
2023/09/23 00:59:37;;;;;;;4.75;4.38;;;;;;;12.24;100.00;100571.63;4923119;29;20066;-73
2023/09/23 01:02:05;;;;;;;5.22;3.75;;;;;;;12.22;100.00;100573.41;4907977;29;20043;-74
2023/09/23 01:04:34;;;;;;;4.93;4.28;;;;;;;12.21;100.00;100581.31;4936401;28;20144;-73
2023/09/23 01:07:02;;;;;;;5.25;4.10;;;;;;;12.19;100.00;100583.09;4880821;29;20063;-73
2023/09/23 01:09:33;;;;;;;4.53;3.75;;;;;;;12.18;100.00;100584.00;4903085;29;20403;-73
2023/09/23 01:12:00;;;;;;;;;;;;;;;12.17;100.00;100580.47;4920802;29;20039;-73
2023/09/23 01:14:27;;;;;;;4.22;3.63;;;;;;;12.17;100.00;100584.88;4949130;28;19926;-73
2023/09/23 01:16:58;;;;;;;7.80;3.90;;;;;;;12.16;100.00;100583.16;4925141;29;20078;-73
2023/09/23 01:19:26;;;;;;;5.50;3.70;;;;;;;12.15;100.00;100586.66;4912142;28;20078;-73
2023/09/23 01:21:54;;;;;;;4.80;3.88;;;;;;;12.14;100.00;100590.22;4895450;28;20072;-73
2023/09/23 01:24:21;;;;;;;4.32;3.28;;;;;;;12.12;100.00;100576.09;4887528;29;20058;-73
2023/09/23 01:26:54;;;;;;;4.00;3.63;;;;;;;12.13;100.00;100585.81;4917231;29;20054;-73
2023/09/23 01:29:24;;;;;;;2.80;2.60;;;;;;;12.09;100.00;100585.81;4931580;29;20418;-73
2023/09/23 01:32:28;;;;;;;2.92;2.63;;;;;;;12.07;100.00;100598.16;4925253;29;20516;-73
2023/09/23 01:34:56;;;;;;;2.90;2.70;;;;;;;12.04;100.00;100603.47;4922169;29;20398;-73
2023/09/23 01:37:23;;;;;;;2.30;2.10;;;;;;;12.03;100.00;100599.06;4882368;29;20441;-73
2023/09/23 01:39:50;;;;;;;3.13;2.30;;;;;;;12.02;100.00;100601.72;4939350;28;20055;-73
2023/09/23 01:42:18;;;;;;;3.47;2.33;;;;;;;12.01;100.00;100608.78;4949723;28;20048;-73
2023/09/23 01:44:45;;;;;;;2.30;2.10;;;;;;;12.00;100.00;100596.47;4912113;29;20055;-73
2023/09/23 01:47:16;;;;;;;1.80;1.70;;;;;;;11.98;100.00;100603.50;4956908;28;20035;-73
2023/09/23 01:49:43;;;;;;;4.40;2.10;;;;;;;11.97;100.00;100600.91;4942666;29;20055;-75
2023/09/23 01:52:10;;;;;;;1.90;1.80;;;;;;;11.95;100.00;100603.53;4908145;28;20066;-75
2023/09/23 01:54:38;;;;;;;2.35;2.15;;;;;;;11.95;100.00;100597.38;4923940;29;20538;-74
2023/09/23 01:57:05;;;;;;;3.83;2.35;;;;;;;11.94;100.00;100608.81;4911477;29;20039;-75
2023/09/23 01:59:32;;;;;;;2.92;1.85;;;;;;;11.90;100.00;100606.19;4909081;29;20063;-74
2023/09/23 02:02:03;;;;;;;5.15;1.90;;;;;;;11.90;100.00;100615.88;4940036;28;20051;-74
2023/09/23 02:04:30;;;;;;;3.53;1.70;;;;;;;11.90;100.00;100615.88;4928151;29;20062;-74
2023/09/23 02:06:58;;;;;;;2.67;1.60;;;;;;;11.89;100.00;100611.47;4879187;29;20051;-74
2023/09/23 02:09:25;;;;;;;3.05;1.70;;;;;;;11.88;100.00;100620.25;4943137;28;20047;-74
2023/09/23 02:11:53;;;;;;;3.38;1.70;;;;;;;11.87;100.00;100615.84;4938106;28;20043;-74
2023/09/23 02:14:20;;;;;;;1.60;1.55;;;;;;;11.86;100.00;100616.75;4905625;29;21483;-75
2023/09/23 02:16:48;;;;;;;2.60;1.70;;;;;;;11.82;100.00;100629.09;4926639;29;20051;-74
2023/09/23 02:19:16;;;;;;;1.55;1.35;;;;;;;11.79;100.00;100623.81;4908940;29;20418;-74
2023/09/23 02:21:44;;;;;;;1.38;1.35;;;;;;;11.78;100.00;100631.78;4898936;28;20490;-74
2023/09/23 02:24:12;;;;;;;1.55;1.45;;;;;;;11.75;100.00;100632.66;4874364;29;20048;-74
2023/09/23 02:26:39;;;;;;;1.83;1.60;;;;;;;11.75;100.00;100639.69;4950058;28;20051;-74
2023/09/23 02:29:06;;;;;;;1.73;1.50;;;;;;;11.74;100.00;100648.50;4949843;28;20074;-74
2023/09/23 02:31:36;;;;;;;2.17;1.50;;;;;;;11.73;100.00;100649.38;4911307;29;20051;-74
2023/09/23 02:34:05;;;;;;;1.98;1.50;;;;;;;11.71;100.00;100657.31;4935798;29;20056;-74
2023/09/23 02:36:34;;;;;;;2.67;1.17;;;;;;;11.69;100.00;100653.81;4930072;29;20062;-74
2023/09/23 02:39:15;;;;;;;1.40;1.30;;;;;;;11.69;100.00;100661.72;4913720;28;20055;-75
2023/09/23 02:41:45;;;;;;;1.75;1.30;;;;;;;11.69;100.00;100669.63;4938978;29;20058;-74
2023/09/23 02:44:22;;;;;;;1.25;1.15;;;;;;;11.68;100.00;100668.78;4920769;29;20039;-74
2023/09/23 02:46:52;;;;;;;3.42;1.60;;;;;;;11.68;100.00;100662.59;4928409;28;20055;-74
2023/09/23 02:49:19;;;;;;;1.90;1.47;;;;;;;11.68;100.00;100667.88;4931519;29;20124;-74
2023/09/23 02:51:49;;;;;;;1.75;1.65;;;;;;;11.69;100.00;100669.63;4947116;29;20058;-74
2023/09/23 02:54:19;;;;;;;3.22;1.67;;;;;;;11.70;100.00;100674.91;4908693;28;20866;-74
2023/09/23 02:56:50;;;;;;;3.42;1.65;;;;;;;11.71;100.00;100675.78;4925693;29;20054;-74
2023/09/23 02:59:26;;;;;;;5.90;2.30;;;;;;;11.71;100.00;100670.50;4952214;28;20487;-74
2023/09/23 03:01:53;;;;;;;1.77;1.67;;;;;;;11.73;100.00;100679.28;4916237;28;20494;-74
2023/09/23 03:04:23;;;;;;;2.55;1.48;;;;;;;11.73;100.00;100681.06;4945409;29;20039;-74
2023/09/23 03:07:01;;;;;;;3.25;2.03;;;;;;;11.73;100.00;100681.94;4924802;29;20071;-74
2023/09/23 03:09:32;;;;;;;3.67;2.40;;;;;;;11.74;100.00;100688.09;4902034;28;20425;-74
2023/09/23 03:12:00;;;;;;;2.10;1.90;;;;;;;11.73;100.00;100681.06;4926906;29;20062;-74
2023/09/23 03:14:42;;;;;;;3.35;1.58;;;;;;;11.72;100.00;100685.47;4929790;29;20062;-74
2023/09/23 03:17:13;;;;;;;2.55;2.00;;;;;;;11.71;100.00;100689.84;4923380;28;20051;-74
2023/09/23 03:19:40;;;;;;;3.25;1.88;;;;;;;11.69;100.00;100686.34;4928916;29;20066;-74
2023/09/23 03:22:07;;;;;;;2.40;2.20;;;;;;;11.68;100.00;100681.06;4926199;28;20054;-74
2023/09/23 03:24:35;;;;;;;4.80;2.88;;;;;;;11.68;100.00;100681.06;4898757;28;20042;-74
2023/09/23 03:27:02;;;;;;;3.25;2.80;;;;;;;11.68;100.00;100687.25;4910524;29;20058;-74
2023/09/23 03:29:30;;;;;;;5.28;3.08;;;;;;;11.66;100.00;100682.84;4961171;28;20429;-74
2023/09/23 03:31:59;;;;;;;5.70;3.33;;;;;;;11.62;100.00;100689.88;4908232;29;20090;-74
2023/09/23 03:34:27;;;;;;;5.25;3.38;;;;;;;11.58;100.00;100685.50;4929444;29;20518;-74
2023/09/23 03:36:54;;;;;;;4.25;3.85;;;;;;;11.56;100.00;100689.91;4942848;28;20062;-74
2023/09/23 03:39:22;;;;;;;4.97;4.10;;;;;;;11.52;100.00;100682.91;4946066;28;20055;-74
2023/09/23 03:41:49;;;;;;;4.10;3.70;;;;;;;11.48;100.00;100686.44;4896904;28;20524;-74
2023/09/23 03:44:17;;;;;;;6.15;4.47;;;;;;;11.45;100.00;100695.22;4943564;28;20069;-74
2023/09/23 03:46:50;;;;;;;5.82;4.13;;;;;;;11.43;100.00;100698.75;4925581;29;20495;-73
2023/09/23 03:49:21;;;;;;;6.30;4.90;;;;;;;11.40;100.00;100698.75;4922603;29;20059;-74
2023/09/23 03:51:49;;;;;;;5.90;5.18;;;;;;;11.37;100.00;100699.66;4943343;29;20055;-73
2023/09/23 03:54:17;;;;;;;6.18;4.68;;;;;;;11.35;100.00;100705.81;4906432;29;20040;-73
2023/09/23 03:56:45;;;;;;;6.07;5.05;;;;;;;11.34;100.00;100709.31;4870606;29;20059;-75
2023/09/23 03:59:13;;;;;;;6.30;5.50;;;;;;;11.34;100.00;100711.97;4928004;29;20077;-73
2023/09/23 04:01:40;;;;;;;9.80;5.25;;;;;;;11.32;100.00;100712.88;4914009;29;20055;-73
2023/09/23 04:04:10;;;;;;;6.97;5.53;;;;;;;11.31;100.00;100716.38;4864194;29;20052;-73
2023/09/23 04:06:38;;;;;;;8.23;5.97;;;;;;;11.30;100.00;100713.72;4937102;28;20078;-73
2023/09/23 04:09:07;;;;;;;8.70;7.80;;;;;;;11.30;100.00;100719.91;4911261;29;20048;-73
2023/09/23 04:11:35;;;;;;;9.27;7.13;;;;;;;11.29;100.00;100728.69;4877415;28;20063;-73
2023/09/23 04:14:02;;;;;;;6.53;5.80;;;;;;;11.28;100.00;100732.19;4904340;29;20059;-73
2023/09/23 04:16:30;;;;;;;8.55;6.20;;;;;;;11.27;100.00;100738.38;4900559;29;20507;-73
2023/09/23 04:18:57;;;;;;;8.85;6.05;;;;;;;11.27;100.00;100742.78;4897480;29;20117;-73
2023/09/23 04:21:25;;;;;;;13.93;6.60;;;;;;;11.27;100.00;100742.78;4932107;29;20058;-73
2023/09/23 04:23:53;;;;;;;7.55;5.85;;;;;;;11.27;100.00;100740.13;4917542;29;20059;-73
2023/09/23 04:26:21;;;;;;;8.43;6.65;;;;;;;11.26;100.00;100754.19;4893273;28;20060;-73
2023/09/23 04:28:52;;;;;;;9.15;6.22;;;;;;;11.27;100.00;100746.28;4924318;28;20043;-73
2023/09/23 04:31:24;;;;;;;8.45;6.55;;;;;;;11.28;100.00;100760.34;4925688;29;20492;-73
2023/09/23 04:33:51;;;;;;;8.73;6.47;;;;;;;11.28;100.00;100757.69;4886237;29;20161;-73
2023/09/23 04:36:21;;;;;;;8.45;6.35;;;;;;;11.26;100.00;100760.34;4916727;29;20051;-73
2023/09/23 04:38:48;;;;;;;7.85;6.72;;;;;;;11.26;100.00;100767.38;4920504;29;20056;-73
2023/09/23 04:41:16;;;;;;;6.63;6.00;;;;;;;11.27;100.00;100762.09;4906666;29;20424;-73
2023/09/23 04:43:43;;;;;;;7.50;6.50;;;;;;;11.26;100.00;100770.88;4864033;29;20419;-73
2023/09/23 04:46:14;;;;;;;8.38;7.43;;;;;;;11.28;100.00;100765.63;4904659;29;20585;-73
2023/09/23 04:48:42;;;;;;;10.68;7.47;;;;;;;11.28;100.00;100769.13;4941010;28;20095;-73
2023/09/23 04:51:10;;;;;;;10.70;7.38;;;;;;;11.28;100.00;100774.41;4879741;29;20047;-73
2023/09/23 04:53:37;;;;;;;9.50;6.70;;;;;;;11.30;100.00;100770.03;4909083;29;20055;-73
2023/09/23 04:56:16;;;;;;;10.40;7.25;;;;;;;11.30;100.00;100769.13;4927224;29;20047;-73
2023/09/23 04:58:44;;;;;;;8.27;7.03;;;;;;;11.30;100.00;100777.94;4852747;29;20055;-73
2023/09/23 05:01:12;;;;;;;10.00;7.90;;;;;;;11.31;100.00;100787.59;4921384;29;20462;-73
2023/09/23 05:03:39;;;;;;;8.40;6.85;;;;;;;11.31;100.00;100784.97;4928002;29;20043;-73
2023/09/23 05:06:08;;;;;;;9.13;8.13;;;;;;;11.31;100.00;100789.38;4893506;29;20810;-73
2023/09/23 05:08:35;;;;;;;11.25;7.53;;;;;;;11.31;100.00;100792.88;4931863;29;20056;-73
2023/09/23 05:11:06;;;;;;;9.43;7.07;;;;;;;11.32;100.00;100799.03;4918114;29;20721;-75
2023/09/23 05:13:33;;;;;;;;;;;;;;;11.32;100.00;100801.66;4882508;29;20048;-74
2023/09/23 05:16:00;;;;;;;9.13;7.20;;;;;;;11.29;100.00;100801.69;4908166;29;19926;-73
2023/09/23 05:18:29;;;;;;;9.13;7.22;;;;;;;11.25;100.00;100806.06;4908752;29;20056;-74
2023/09/23 05:20:56;;;;;;;9.13;6.70;;;;;;;11.25;100.00;100807.84;4907456;29;20499;-74
2023/09/23 05:23:23;;;;;;;8.23;6.60;;;;;;;11.23;100.00;100809.59;4924229;29;20048;-74
2023/09/23 05:25:51;;;;;;;11.50;7.43;;;;;;;11.22;100.00;100813.97;4907023;29;20078;-74
2023/09/23 05:28:18;;;;;;;8.45;6.38;;;;;;;11.23;100.00;100812.25;4940755;29;20056;-74
2023/09/23 05:30:46;;;;;;;9.43;7.35;;;;;;;11.21;100.00;100814.88;4843321;29;20051;-74
2023/09/23 05:33:14;;;;;;;8.20;6.63;;;;;;;11.22;100.00;100816.63;4917021;29;20044;-74
2023/09/23 05:35:41;;;;;;;6.78;6.03;;;;;;;11.23;100.00;100822.78;4934586;28;20059;-74
2023/09/23 05:38:09;;;;;;;7.50;5.82;;;;;;;11.21;100.00;100828.06;4906962;29;20051;-74
2023/09/23 05:40:37;;;;;;;8.40;6.25;;;;;;;11.25;100.00;100839.50;4939220;28;20047;-73
2023/09/23 05:43:05;;;;;;;12.60;6.60;;;;;;;11.26;100.00;100831.56;4905566;29;20046;-74
2023/09/23 05:45:35;;;;;;;7.32;6.50;;;;;;;11.30;100.00;100840.34;4865455;29;20415;-74
2023/09/23 05:48:04;;;;;;;8.32;5.97;;;;;;;11.32;100.00;100838.59;4923199;29;20576;-74
2023/09/23 05:50:32;;;;;;;6.28;5.68;;;;;;;11.34;100.00;100836.81;4939698;28;20051;-74
2023/09/23 05:53:00;;;;;;;8.52;5.85;;;;;;;11.32;100.00;100847.41;4910570;29;20063;-74
2023/09/23 05:55:31;;;;;;;7.32;5.57;;;;;;;11.33;100.00;100850.91;4901416;29;20063;-74
2023/09/23 05:57:58;;;;;;;8.38;5.78;;;;;;;11.31;100.00;100850.03;4905855;29;20063;-74
2023/09/23 06:00:25;;;;;;;8.75;6.35;;;;;;;11.29;100.00;100849.16;4922947;29;20063;-74
2023/09/23 06:02:53;;;;;;;10.48;6.32;;;;;;;11.26;100.00;100857.06;4870096;29;20048;-74
2023/09/23 06:05:21;;;;;;;8.30;6.28;;;;;;;11.26;100.00;100867.63;4927402;29;20051;-74
2023/09/23 06:07:49;;;;;;;7.40;6.00;;;;;;;11.26;100.00;100864.97;4905049;29;20490;-74
2023/09/23 06:10:18;;;;;;;9.20;5.70;;;;;;;11.24;100.00;100866.72;4914734;29;20062;-74
2023/09/23 06:12:46;;;;;;;6.28;5.53;;;;;;;11.25;100.00;100886.97;4911070;29;20052;-74
2023/09/23 06:15:13;;;;;;;6.63;6.00;;;;;;;11.23;100.00;100886.97;4924480;29;20682;-74
2023/09/23 06:17:40;;;;;;;8.15;6.30;;;;;;;11.21;100.00;100888.72;4849760;29;20051;-74
2023/09/23 06:20:09;;;;;;;8.65;6.45;;;;;;;11.23;100.00;100892.25;4915496;29;20047;-74
2023/09/23 06:22:37;;;;;;;6.53;5.80;;;;;;;11.24;100.00;100901.91;4937463;29;20048;-74
2023/09/23 06:25:04;;;;;;;9.10;6.15;;;;;;;11.24;100.00;100899.25;4893626;29;20051;-74
2023/09/23 06:27:32;;;;;;;7.00;6.30;;;;;;;11.25;100.00;100895.75;4928346;29;20055;-74
2023/09/23 06:30:00;;;;;;;11.52;7.15;;;;;;;11.27;100.00;100903.69;4924953;29;20063;-74
2023/09/23 06:32:27;;;;;;;7.57;6.13;;;;;;;11.29;100.00;100901.91;4882890;29;20060;-74
2023/09/23 06:34:56;;;;;;;7.60;6.35;;;;;;;11.32;100.00;100909.81;4932019;29;20043;-74
2023/09/23 06:37:23;;;;;;;10.48;6.82;;;;;;;11.36;100.00;100916.88;4943642;29;20055;-74
2023/09/23 06:39:51;;;;;;;10.63;6.22;;;;;;;11.40;100.00;100923.00;4936723;28;20498;-74
2023/09/23 06:42:18;;;;;;;9.55;6.78;;;;;;;11.41;100.00;100930.94;4922088;29;20043;-74
2023/09/23 06:44:46;;;;;;;10.55;7.68;;;;;;;11.46;100.00;100936.25;4928489;29;20051;-74
2023/09/23 06:47:13;;;;;;;8.55;6.93;;;;;;;11.53;100.00;100943.28;4865395;29;20055;-74
2023/09/23 06:49:40;;;;;;;8.55;7.45;;;;;;;11.66;100.00;100946.78;4895737;29;20063;-74
2023/09/23 06:52:11;;;;;;;10.15;7.40;;;;;;;11.91;100.00;100947.72;4926458;29;20078;-75
2023/09/23 06:54:38;;;;;;;7.78;6.97;;;;;;;12.08;100.00;100958.28;4896462;29;20036;-73
2023/09/23 06:57:06;;;;;;;8.00;7.07;;;;;;;12.17;100.00;100963.50;4905761;29;20052;-75
2023/09/23 06:59:34;;;;;;;9.75;7.78;;;;;;;12.19;100.00;100963.50;4919326;29;20423;-74
2023/09/23 07:02:01;;;;;;;9.68;7.72;;;;;;;12.16;100.00;100967.06;4879145;29;20052;-74
2023/09/23 07:04:28;;;;;;;10.07;7.82;;;;;;;12.16;100.00;100974.09;4922252;29;20067;-74
2023/09/23 07:06:56;;;;;;;18.13;8.90;;;;;;;12.14;100.00;100973.22;4909829;29;20062;-74
2023/09/23 07:09:23;;;;;;;12.18;9.02;;;;;;;12.14;100.00;100978.53;4944363;29;20043;-74
2023/09/23 07:11:50;;;;;;;12.15;10.52;;;;;;;12.10;100.00;100982.91;4913618;29;20513;-74
2023/09/23 07:14:18;;;;;;;12.57;11.13;;;;;;;12.07;100.00;100989.06;4910117;29;20046;-73
2023/09/23 07:16:45;;;;;;;15.38;11.70;;;;;;;12.07;100.00;100983.78;4899168;29;20056;-75
2023/09/23 07:19:13;;;;;;;15.38;11.80;;;;;;;12.07;100.00;100989.06;4899065;29;20039;-74
2023/09/23 07:21:41;;;;;;;19.90;13.55;;;;;;;12.04;100.00;100981.16;4911998;29;20510;-74
2023/09/23 07:24:08;;;;;;;17.77;13.10;;;;;;;12.04;100.00;100985.53;4908875;29;20684;-75
2023/09/23 07:26:39;;;;;;;;;;;;;;;12.07;100.00;100991.72;4902027;29;20072;-72
2023/09/23 07:29:06;;;;;;;15.93;13.27;;;;;;;12.06;100.00;100992.59;4924464;29;20284;-75
2023/09/23 07:31:34;;;;;;;21.40;13.90;;;;;;;12.11;100.00;100994.34;4906563;29;20410;-74
2023/09/23 07:34:01;;;;;;;15.63;12.85;;;;;;;12.15;100.00;100996.97;4865167;29;20051;-74
2023/09/23 07:36:29;;;;;;;20.27;12.38;;;;;;;12.23;100.00;101002.25;4909549;29;20052;-74
2023/09/23 07:38:56;;;;;;;19.55;13.80;;;;;;;12.31;100.00;101002.28;4896274;29;20087;-74
2023/09/23 07:41:23;;;;;;;19.80;14.20;;;;;;;12.41;100.00;101001.34;4898984;29;20046;-74
2023/09/23 07:43:51;;;;;;;17.95;13.02;;;;;;;12.54;100.00;101002.22;4929160;29;20522;-74
2023/09/23 07:46:18;;;;;;;16.17;13.13;;;;;;;12.69;100.00;101015.41;4912022;29;20421;-74
2023/09/23 07:48:46;;;;;;;15.65;12.70;;;;;;;12.81;100.00;101007.41;4859743;29;20059;-74
2023/09/23 07:51:13;;;;;;;18.27;13.73;;;;;;;12.92;100.00;101017.09;4905793;29;20043;-74
2023/09/23 07:53:40;;;;;;;14.57;12.45;;;;;;;13.05;100.00;101011.72;4938419;29;20062;-74
2023/09/23 07:56:09;;;;;;;19.10;12.40;;;;;;;13.20;100.00;101013.44;4907661;29;20047;-74
2023/09/23 07:58:39;;;;;;;14.70;12.18;;;;;;;13.30;100.00;101021.31;4921627;29;20054;-74
2023/09/23 08:01:08;;;;;;;19.80;13.18;;;;;;;13.34;100.00;101016.03;4942553;29;20507;-74
2023/09/23 08:03:35;;;;;;;14.88;11.02;;;;;;;13.36;100.00;101024.84;4923096;29;20044;-74
2023/09/23 08:06:03;;;;;;;15.48;12.25;;;;;;;13.41;100.00;101017.75;4877028;29;20047;-74
2023/09/23 08:08:31;;;;;;;16.42;11.43;;;;;;;13.47;100.00;101024.78;4899341;29;20055;-74
2023/09/23 08:10:58;;;;;;;14.18;10.18;;;;;;;13.50;100.00;101019.47;4913125;29;20044;-74
2023/09/23 08:13:26;;;;;;;13.57;10.25;;;;;;;13.48;100.00;101025.66;4922380;29;20070;-74
2023/09/23 08:15:58;;;;;;;13.07;10.27;;;;;;;13.48;100.00;101037.16;4897516;29;20048;-74
2023/09/23 08:18:25;;;;;;;13.70;10.27;;;;;;;13.44;100.00;101041.56;4925583;29;20044;-74
2023/09/23 08:20:59;;;;;;;10.30;8.98;;;;;;;13.45;100.00;101040.66;4880890;29;20050;-75
2023/09/23 08:23:27;;;;;;;16.52;10.55;;;;;;;13.51;100.00;101038.88;4906545;29;20517;-74
2023/09/23 08:25:56;;;;;;;11.65;9.43;;;;;;;13.57;100.00;101037.09;4891900;29;20055;-74
2023/09/23 08:28:23;;;;;;;12.05;10.40;;;;;;;13.60;100.00;101045.00;4910571;29;20078;-74
2023/09/23 08:30:51;;;;;;;12.45;9.77;;;;;;;13.60;100.00;101054.72;4868698;29;20056;-74
2023/09/23 08:33:19;;;;;;;15.55;10.10;;;;;;;13.58;100.00;101056.50;4898811;29;20040;-74
2023/09/23 08:35:48;;;;;;;12.88;10.60;;;;;;;13.57;100.00;101057.38;4922656;29;20044;-74
2023/09/23 08:38:15;;;;;;;11.65;9.95;;;;;;;13.66;100.00;101057.31;4887110;29;20047;-74
2023/09/23 08:40:47;;;;;;;15.38;10.60;;;;;;;13.84;100.00;101054.56;4908593;29;20055;-74
2023/09/23 08:43:18;;;;;;;13.00;9.57;;;;;;;14.09;100.00;101054.38;4908055;29;20415;-74
2023/09/23 08:45:46;;;;;;;12.02;9.18;;;;;;;14.29;100.00;101064.81;4926312;29;20047;-74
2023/09/23 08:48:15;;;;;;;9.38;8.10;;;;;;;14.56;100.00;101060.16;4916724;29;20059;-74
2023/09/23 08:50:44;;;;;;;13.18;8.80;;;;;;;14.85;100.00;101066.94;4924749;29;20518;-74
2023/09/23 08:53:14;;;;;;;10.02;8.13;;;;;;;15.03;100.00;101069.41;4886990;29;20140;-74
2023/09/23 08:55:43;;;;;;;11.35;7.95;;;;;;;15.23;100.00;101065.63;4947306;29;20051;-74
2023/09/23 08:58:11;;;;;;;7.65;6.72;;;;;;;15.42;100.00;101071.56;4914132;29;20047;-74
2023/09/23 09:00:44;;;;;;;8.40;6.93;;;;;;;15.52;100.00;101075.84;4945496;28;20051;-74
2023/09/23 09:03:12;;;;;;;9.38;8.43;;;;;;;15.45;100.00;101077.72;4902757;28;20046;-75
2023/09/23 09:05:40;;;;;;;9.00;7.40;;;;;;;15.43;100.00;101071.56;4946024;29;20055;-75
2023/09/23 09:08:09;;;;;;;12.18;8.70;;;;;;;15.36;100.00;101086.69;4884255;29;20426;-76
2023/09/23 09:10:40;;;;;;;10.10;8.55;;;;;;;15.28;100.00;101083.25;4912286;29;20055;-74
2023/09/23 09:13:10;;;;;;;11.45;10.02;;;;;;;15.30;100.00;101085.91;4907871;29;20059;-76
2023/09/23 09:15:37;;;;;;;10.20;7.97;;;;;;;15.31;100.00;101088.53;4932835;28;20047;-77
2023/09/23 09:18:07;;;;;;;8.90;8.00;;;;;;;15.35;100.00;101084.94;4925525;29;20043;-77
2023/09/23 09:20:36;;;;;;;8.93;8.02;;;;;;;15.43;100.00;101092.81;4938125;29;20414;-78
2023/09/23 09:23:03;;;;;;;8.43;7.45;;;;;;;15.55;100.00;101092.63;4862775;29;20047;-77
2023/09/23 09:25:31;;;;;;;10.82;7.97;;;;;;;15.71;100.00;101095.09;4931039;29;20051;-77
2023/09/23 09:27:59;;;;;;;8.85;7.78;;;;;;;15.76;100.00;101098.56;4911361;29;20059;-78
2023/09/23 09:30:26;;;;;;;9.10;7.45;;;;;;;15.85;100.00;101106.41;4925491;29;20047;-75
2023/09/23 09:32:59;;;;;;;8.52;7.00;;;;;;;15.89;100.00;101102.81;4922579;28;20425;-75
2023/09/23 09:35:27;;;;;;;10.98;6.97;;;;;;;15.97;100.00;101108.00;4938038;28;20490;-74
2023/09/23 09:38:00;;;;;;;8.60;5.63;;;;;;;15.98;100.00;101105.34;4904545;28;20521;-74
2023/09/23 09:40:44;;;;;;;8.45;6.00;;;;;;;16.07;100.00;101106.13;4957506;28;20059;-75
2023/09/23 09:43:13;;;;;;;8.52;6.22;;;;;;;16.22;100.00;101105.88;4927184;29;20059;-76
2023/09/23 09:45:42;;;;;;;5.22;4.72;;;;;;;16.28;100.00;101111.09;4903514;29;20454;-76
2023/09/23 09:48:12;;;;;;;8.20;5.03;;;;;;;16.40;100.00;101114.44;4929924;29;20541;-75
2023/09/23 09:50:41;;;;;;;5.28;4.78;;;;;;;16.48;100.00;101117.84;4939175;28;20051;-75
2023/09/23 09:53:09;;;;;;;5.95;4.03;;;;;;;16.49;100.00;101117.81;4858874;29;20074;-75
2023/09/23 09:55:37;;;;;;;4.05;3.65;;;;;;;16.49;100.00;101127.59;4941503;29;20051;-75
2023/09/23 09:58:04;;;;;;;6.05;3.65;;;;;;;16.45;100.00;101129.41;4962463;28;20054;-75
2023/09/23 10:00:42;;;;;;;5.60;3.58;;;;;;;16.50;100.00;101137.31;4946304;29;20479;-75
2023/09/23 10:03:12;;;;;;;4.35;3.13;;;;;;;16.49;100.00;101141.75;4926987;28;20050;-75
2023/09/23 10:05:44;;;;;;;4.82;3.28;;;;;;;16.50;100.00;101142.63;4928712;29;20226;-75
2023/09/23 10:08:24;;;;;;;5.05;2.55;;;;;;;16.52;100.00;101147.03;4892665;28;20066;-76
2023/09/23 10:11:08;;;;;;;3.15;2.75;;;;;;;16.60;100.00;101160.22;4949031;29;20846;-74
2023/09/23 10:13:35;;;;;;;2.55;2.35;;;;;;;16.72;100.00;101149.34;4943284;29;20495;-74
2023/09/23 10:16:03;;;;;;;4.13;2.17;;;;;;;16.86;100.00;101158.91;4912685;29;20061;-74
2023/09/23 10:18:35;;;;;;;2.85;2.50;;;;;;;16.95;100.00;101156.94;4930580;29;20055;-76
2023/09/23 10:21:04;;;;;;;4.07;2.17;;;;;;;16.98;100.00;101161.34;4949095;29;20142;-76
2023/09/23 10:23:35;;;;;;;4.95;2.50;;;;;;;16.99;100.00;101168.41;4866670;28;20051;-75
2023/09/23 10:26:19;;;;;;;3.42;2.20;;;;;;;16.95;100.00;101172.91;4949726;29;20058;-75
2023/09/23 10:29:01;;;;;;;6.68;2.50;;;;;;;16.82;100.00;101171.38;4913671;29;20055;-76
2023/09/23 10:31:29;;;;;;;4.45;2.40;;;;;;;16.75;100.00;101175.03;4929416;29;20054;-76
2023/09/23 10:34:02;;;;;;;4.90;2.47;;;;;;;16.69;100.00;101172.47;4920326;28;20054;-74
2023/09/23 10:36:30;;;;;;;5.22;2.50;;;;;;;16.67;100.00;101171.63;4903133;29;20047;-75
2023/09/23 10:38:58;;;;;;;4.75;2.00;;;;;;;16.56;100.00;101179.78;4930845;29;20043;-75
2023/09/23 10:41:36;;;;;;;3.70;1.75;;;;;;;16.53;100.00;101194.00;4886407;29;20047;-74
2023/09/23 10:44:04;;;;;;;2.33;1.88;;;;;;;16.53;100.00;101193.13;4946575;29;20039;-74
2023/09/23 10:46:32;;;;;;;2.55;2.30;;;;;;;16.48;100.00;101197.63;4941110;29;20047;-74
2023/09/23 10:49:01;;;;;;;3.75;2.15;;;;;;;16.44;100.00;101193.28;4899516;29;20522;-74
2023/09/23 10:51:28;;;;;;;4.32;2.10;;;;;;;16.32;100.00;101197.00;4928673;29;20054;-74
2023/09/23 10:53:56;;;;;;;7.85;1.73;;;;;;;16.20;100.00;101199.84;4919759;29;20051;-74
2023/09/23 10:56:25;;;;;;;3.05;1.88;;;;;;;16.14;100.00;101192.81;4903470;28;20039;-74
2023/09/23 10:58:52;;;;;;;2.92;1.70;;;;;;;16.05;100.00;101195.59;4948631;29;20051;-74
2023/09/23 11:01:24;;;;;;;6.90;2.05;;;;;;;15.92;100.00;101198.44;4930107;29;20066;-74
2023/09/23 11:03:51;;;;;;;2.97;1.58;;;;;;;15.83;100.00;101209.19;4935936;28;20077;-74
2023/09/23 11:06:19;;;;;;;2.72;1.70;;;;;;;15.77;100.00;101220.78;4930757;29;20042;-74
2023/09/23 11:08:49;;;;;;;3.20;1.60;;;;;;;15.72;100.00;101222.56;4918389;29;20051;-74
2023/09/23 11:11:18;;;;;;;2.60;1.55;;;;;;;15.71;100.00;101230.59;4935961;29;20047;-75
2023/09/23 11:13:48;;;;;;;1.50;1.40;;;;;;;15.67;100.00;101234.16;4906244;29;20069;-74
2023/09/23 11:16:21;;;;;;;1.52;1.40;;;;;;;15.65;100.00;101242.16;4944768;29;20051;-74
2023/09/23 11:18:49;;;;;;;4.95;2.20;;;;;;;15.67;100.00;101244.78;4900428;28;20056;-74
2023/09/23 11:21:17;;;;;;;4.00;1.90;;;;;;;15.71;100.00;101246.53;4896216;29;20047;-74